Terminal Aerodrome Forecast
Issued by NWS Milwaukee/Sullivan, WI

Home | Current Version | Previous Version | Text Only | Print | Product List | Glossary On
Versions: 1 2 3 4 5 6 7 8 9 10 11 12 13 14 15 16 17 18 19 20 21 22 23 24 25 26 27 28 29 30 31 32 33 34 35 36 37 38 39 40 41 42 43 44 45 46 47 48 49 50
000
FTUS43 KMKX 260242 AAA
TAFMKE
TAF AMD
KMKE 260242Z 2603/2706 01006KT P6SM FEW050 FEW250
     FM260600 VRB03KT P6SM SCT120
     FM260900 VRB03KT P6SM FEW050 BKN120
     FM261200 00000KT P6SM BKN100
     FM262100 13008KT P6SM VCSH SCT040 BKN080
     FM270100 08006KT P6SM OVC025=

USA.gov is the U.S. government's official web portal to all federal, state and local government web resources and services.